Time;durP1;ratioP1;P1;durP2;ratioP2;P2;SDS_P1;SDS_P2;PMS_P1;PMS_P2;Temp;Humidity;BMP_temperature;BMP_pressure;BME280_temperature;BME280_humidity;BME280_pressure;Samples;Min_cycle;Max_cycle;Signal;HPM_P1;HPM_P2
2021/01/28 00:02:18;;;;;;;5.13;2.45;;;14.80;66.50;;;;;;4993080;28;20026;-47
2021/01/28 00:04:43;;;;;;;2.60;2.10;;;14.70;66.40;;;;;;4992838;28;20037;-48
2021/01/28 00:07:09;;;;;;;3.97;2.17;;;14.80;87.30;;;;;;4992784;28;20034;-49
2021/01/28 00:09:35;;;;;;;3.95;2.35;;;14.70;66.40;;;;;;4992748;28;20066;-49
2021/01/28 00:12:00;;;;;;;3.05;2.15;;;14.70;66.30;;;;;;4993769;28;20046;-49
2021/01/28 00:14:26;;;;;;;3.22;2.13;;;14.70;66.20;;;;;;4992642;28;20117;-47
2021/01/28 00:16:52;;;;;;;3.20;2.30;;;14.60;66.10;;;;;;4975336;28;20042;-48
2021/01/28 00:19:18;;;;;;;5.18;2.38;;;14.50;66.10;;;;;;4992631;28;20023;-48
2021/01/28 00:21:43;;;;;;;2.88;2.33;;;14.70;66.30;;;;;;4992635;28;20032;-49
2021/01/28 00:24:09;;;;;;;4.20;2.20;;;14.60;66.20;;;;;;4992792;28;20015;-47
2021/01/28 00:26:35;;;;;;;3.28;2.20;;;14.70;66.50;;;;;;4992817;28;20438;-49
2021/01/28 00:29:00;;;;;;;4.53;2.83;;;14.90;87.80;;;;;;4992787;28;20022;-48
2021/01/28 00:31:26;;;;;;;2.80;2.38;;;14.60;87.30;;;;;;4992780;28;20042;-47
2021/01/28 00:33:51;;;;;;;3.80;2.60;;;14.60;66.30;;;;;;4992530;28;20110;-48
2021/01/28 00:36:17;;;;;;;4.18;2.80;;;14.60;66.40;;;;;;4992468;28;20035;-49
2021/01/28 00:38:42;;;;;;;4.57;2.70;;;14.60;66.20;;;;;;4992474;28;20445;-49
2021/01/28 00:41:10;;;;;;;2.75;2.08;;;14.60;66.30;;;;;;4994994;28;20031;-48
2021/01/28 00:43:35;;;;;;;4.45;2.25;;;14.60;66.30;;;;;;4996216;28;20018;-48
2021/01/28 00:46:02;;;;;;;4.18;2.30;;;14.60;66.40;;;;;;4996354;28;20033;-49
2021/01/28 00:48:28;;;;;;;3.35;2.25;;;14.60;66.30;;;;;;4996642;28;20384;-48
2021/01/28 00:50:55;;;;;;;3.47;2.72;;;14.40;66.20;;;;;;4996510;28;20030;-50
2021/01/28 00:53:22;;;;;;;2.72;2.42;;;;;;;;;;4996240;28;20388;-47
2021/01/28 00:55:47;;;;;;;3.25;2.50;;;14.50;65.80;;;;;;4996163;28;20037;-49
2021/01/28 00:58:15;;;;;;;4.07;2.40;;;14.50;66.40;;;;;;4996173;28;20022;-47
2021/01/28 01:00:42;;;;;;;3.30;2.63;;;14.50;66.50;;;;;;4996373;28;20057;-48
2021/01/28 01:03:10;;;;;;;3.70;2.70;;;14.50;66.50;;;;;;4996393;28;20544;-47
2021/01/28 01:05:38;;;;;;;4.35;3.03;;;14.50;66.30;;;;;;4995990;28;20388;-48
2021/01/28 01:08:08;;;;;;;4.10;2.72;;;14.50;66.50;;;;;;4996299;28;20092;-48
2021/01/28 01:10:34;;;;;;;3.80;2.78;;;14.50;66.50;;;;;;4995941;28;20503;-48
2021/01/28 01:12:59;;;;;;;3.65;2.80;;;14.50;66.40;;;;;;4970001;28;20047;-49
2021/01/28 01:15:25;;;;;;;4.35;3.25;;;14.50;66.40;;;;;;4976381;28;20045;-48
2021/01/28 01:17:51;;;;;;;5.03;2.97;;;14.40;66.50;;;;;;4976604;28;20102;-48
2021/01/28 01:20:19;;;;;;;5.10;2.80;;;14.40;87.30;;;;;;4976218;28;20085;-49
2021/01/28 01:22:44;;;;;;;3.60;2.42;;;14.40;66.40;;;;;;4976139;28;20458;-48
2021/01/28 01:25:12;;;;;;;4.93;2.90;;;14.40;66.40;;;;;;4976354;28;20026;-47
2021/01/28 01:27:38;;;;;;;5.65;2.83;;;14.40;66.50;;;;;;4976000;28;20030;-49
2021/01/28 01:30:05;;;;;;;4.20;3.00;;;14.40;66.50;;;;;;4958918;28;20038;-48
2021/01/28 01:32:31;;;;;;;3.97;2.70;;;14.40;66.40;;;;;;4975879;28;20105;-48
2021/01/28 01:34:56;;;;;;;3.85;2.60;;;14.40;66.50;;;;;;4975842;28;20117;-51
2021/01/28 01:37:22;;;;;;;3.92;3.03;;;14.40;87.30;;;;;;4975859;28;20019;-49
2021/01/28 01:39:48;;;;;;;4.05;3.05;;;14.40;66.40;;;;;;4976009;28;20034;-48
2021/01/28 01:42:13;;;;;;;4.93;3.30;;;14.40;67.00;;;;;;4976086;28;20038;-48
2021/01/28 01:44:39;;;;;;;3.83;2.42;;;14.30;66.30;;;;;;4975752;28;20027;-48
2021/01/28 01:47:32;;;;;;;3.67;2.72;;;14.40;66.40;;;;;;4975751;28;20462;-48
2021/01/28 01:49:58;;;;;;;4.70;2.88;;;14.30;66.40;;;;;;4975849;28;20066;-48
2021/01/28 01:52:27;;;;;;;5.68;3.47;;;14.30;66.30;;;;;;4957339;28;20079;-49
2021/01/28 01:54:53;;;;;;;4.45;2.67;;;14.30;66.50;;;;;;4975326;28;20544;-49
2021/01/28 01:57:29;;;;;;;4.47;3.15;;;14.30;66.50;;;;;;4975495;28;20069;-48
2021/01/28 02:00:06;;;;;;;5.97;3.42;;;14.30;87.60;;;;;;4975590;28;20031;-48
2021/01/28 02:02:35;;;;;;;5.53;3.38;;;14.30;87.40;;;;;;4975691;28;20030;-48
2021/01/28 02:05:11;;;;;;;3.95;2.85;;;14.30;66.50;;;;;;4975626;28;20027;-49
2021/01/28 02:07:36;;;;;;;4.05;3.08;;;14.30;66.60;;;;;;4975459;28;20039;-47
2021/01/28 02:10:06;;;;;;;5.15;3.20;;;14.30;66.30;;;;;;4975245;28;20034;-48
2021/01/28 02:12:31;;;;;;;5.25;3.50;;;14.20;66.30;;;;;;4965037;28;20054;-48
2021/01/28 02:14:57;;;;;;;4.38;3.30;;;14.20;66.40;;;;;;4994623;28;20033;-49
2021/01/28 02:17:24;;;;;;;4.20;2.90;;;14.30;87.50;;;;;;4994875;28;20030;-47
2021/01/28 02:19:52;;;;;;;5.28;3.30;;;14.20;66.40;;;;;;4994706;28;20018;-47
2021/01/28 02:22:25;;;;;;;5.10;3.67;;;14.10;87.60;;;;;;4994486;28;20109;-49
2021/01/28 02:24:59;;;;;;;5.65;3.67;;;14.20;66.30;;;;;;4994501;28;20029;-48
2021/01/28 02:27:26;;;;;;;6.28;3.60;;;14.20;66.40;;;;;;4994467;28;20035;-49
2021/01/28 02:29:51;;;;;;;5.38;3.70;;;14.20;66.40;;;;;;4994560;28;20097;-48
2021/01/28 02:32:17;;;;;;;5.00;3.92;;;14.20;66.30;;;;;;4994342;28;20031;-48
2021/01/28 02:34:43;;;;;;;4.53;3.33;;;14.20;87.80;;;;;;4994550;28;20050;-50
2021/01/28 02:37:12;;;;;;;7.15;3.47;;;14.20;66.20;;;;;;4994462;28;20362;-48
2021/01/28 02:39:38;;;;;;;6.93;3.60;;;14.00;66.30;;;;;;4994446;28;20022;-48
2021/01/28 02:42:09;;;;;;;4.95;3.67;;;14.20;66.30;;;;;;4994371;28;20026;-48
2021/01/28 02:44:35;;;;;;;4.57;3.67;;;14.20;66.30;;;;;;4994325;28;20381;-48
2021/01/28 02:47:01;;;;;;;4.35;3.33;;;14.40;87.50;;;;;;4994213;28;20014;-48
2021/01/28 02:49:26;;;;;;;4.93;3.78;;;14.10;66.20;;;;;;4993894;28;20034;-49
2021/01/28 02:51:52;;;;;;;5.20;3.83;;;14.20;66.20;;;;;;4994131;28;20018;-47
2021/01/28 02:54:17;;;;;;;4.00;3.60;;;14.10;66.20;;;;;;4994152;28;20034;-49
2021/01/28 02:56:43;;;;;;;4.63;3.53;;;13.80;87.30;;;;;;4993959;28;20068;-50
2021/01/28 02:59:08;;;;;;;5.75;3.88;;;14.10;66.20;;;;;;4993866;28;20030;-49
2021/01/28 03:01:36;;;;;;;6.82;4.13;;;14.10;66.20;;;;;;4993795;28;20022;-51
2021/01/28 03:04:02;;;;;;;5.05;3.90;;;14.10;66.20;;;;;;4993568;28;20070;-48
2021/01/28 03:06:28;;;;;;;5.97;3.92;;;14.10;66.20;;;;;;4993739;28;20022;-49
2021/01/28 03:08:53;;;;;;;5.72;4.05;;;14.10;66.30;;;;;;4976233;28;20089;-49
2021/01/28 03:11:20;;;;;;;6.50;4.30;;;14.10;66.20;;;;;;4993751;28;20065;-49
2021/01/28 03:13:45;;;;;;;4.95;3.80;;;14.00;87.30;;;;;;4995051;28;20046;-48
2021/01/28 03:16:11;;;;;;;5.13;3.97;;;14.10;66.20;;;;;;4993772;28;20057;-49
2021/01/28 03:18:36;;;;;;;5.25;3.83;;;14.10;66.30;;;;;;4993563;28;20023;-48
2021/01/28 03:21:02;;;;;;;5.82;3.88;;;14.10;66.10;;;;;;4993746;28;20025;-48
2021/01/28 03:23:27;;;;;;;5.63;3.85;;;14.20;88.00;;;;;;4993759;28;20034;-50
2021/01/28 03:25:53;;;;;;;6.35;4.20;;;14.10;66.00;;;;;;4993323;28;20054;-49
2021/01/28 03:28:19;;;;;;;5.43;3.92;;;14.10;66.10;;;;;;4993293;28;20030;-50
2021/01/28 03:30:46;;;;;;;5.45;4.15;;;14.00;66.10;;;;;;4993228;28;20045;-48
2021/01/28 03:33:15;;;;;;;5.53;4.30;;;14.00;66.10;;;;;;4993207;28;20038;-49
2021/01/28 03:35:41;;;;;;;5.97;4.32;;;14.10;87.80;;;;;;4993222;28;20027;-47
2021/01/28 03:38:08;;;;;;;6.50;4.47;;;14.10;66.10;;;;;;4993159;28;20492;-50
2021/01/28 03:40:35;;;;;;;6.93;4.88;;;14.10;87.30;;;;;;4993357;28;20022;-49
2021/01/28 03:43:00;;;;;;;6.03;4.43;;;14.00;66.00;;;;;;4993349;28;20022;-48
2021/01/28 03:45:27;;;;;;;6.53;4.50;;;14.00;66.00;;;;;;4993053;28;20616;-47
2021/01/28 03:47:54;;;;;;;4.95;4.15;;;14.40;66.20;;;;;;4993017;28;20033;-49
2021/01/28 03:50:22;;;;;;;7.43;5.00;;;14.00;66.00;;;;;;4993225;28;20022;-48
2021/01/28 03:52:48;;;;;;;5.70;4.80;;;14.40;66.20;;;;;;4992960;28;20018;-49
2021/01/28 03:55:13;;;;;;;5.88;4.35;;;14.00;66.10;;;;;;4993002;28;20072;-47
2021/01/28 03:57:39;;;;;;;4.78;4.25;;;14.00;66.00;;;;;;4993186;28;20093;-48
2021/01/28 04:00:08;;;;;;;5.88;4.57;;;14.00;66.00;;;;;;4993131;28;20351;-48
2021/01/28 04:02:34;;;;;;;6.63;4.63;;;14.00;87.40;;;;;;4993091;28;20049;-48
2021/01/28 04:05:00;;;;;;;6.75;5.20;;;13.90;87.30;;;;;;4993047;28;20026;-48
2021/01/28 04:07:25;;;;;;;6.10;4.65;;;13.90;87.20;;;;;;4975348;28;20023;-49
2021/01/28 04:09:57;;;;;;;6.78;4.93;;;13.80;65.90;;;;;;4992962;28;20034;-47
2021/01/28 04:12:23;;;;;;;6.32;4.70;;;13.90;65.90;;;;;;4994024;28;20030;-49
2021/01/28 04:14:48;;;;;;;6.78;4.78;;;13.90;66.00;;;;;;4992462;28;20037;-47
2021/01/28 04:17:14;;;;;;;7.38;5.68;;;14.20;88.00;;;;;;4975327;28;20033;-48
2021/01/28 04:19:40;;;;;;;8.07;5.32;;;13.90;65.90;;;;;;4992812;28;20069;-48
2021/01/28 04:22:05;;;;;;;6.72;4.70;;;13.80;87.50;;;;;;4992456;28;20023;-50
2021/01/28 04:24:31;;;;;;;7.72;5.25;;;13.90;65.90;;;;;;4975084;28;20114;-50
2021/01/28 04:26:57;;;;;;;7.03;5.20;;;14.20;88.10;;;;;;4992813;28;20027;-47
2021/01/28 04:29:23;;;;;;;9.40;5.93;;;13.90;87.30;;;;;;4992374;28;20532;-49
2021/01/28 04:31:48;;;;;;;7.55;5.22;;;13.90;65.80;;;;;;4975432;28;20066;-48
2021/01/28 04:34:14;;;;;;;7.65;5.50;;;13.80;65.80;;;;;;4992761;28;20129;-46
2021/01/28 04:36:39;;;;;;;6.35;5.15;;;13.90;65.90;;;;;;4992532;28;20109;-47
2021/01/28 04:39:05;;;;;;;7.18;5.28;;;13.90;65.80;;;;;;4992723;28;20022;-49
2021/01/28 04:41:33;;;;;;;6.55;4.97;;;13.90;65.80;;;;;;4992466;28;20047;-48
2021/01/28 04:44:00;;;;;;;7.18;4.88;;;13.90;65.80;;;;;;4992346;28;20038;-47
2021/01/28 04:46:49;;;;;;;6.88;4.88;;;13.90;65.80;;;;;;4992732;28;20026;-47
2021/01/28 04:49:16;;;;;;;6.38;4.90;;;13.70;65.70;;;;;;4992280;28;20515;-48
2021/01/28 04:51:44;;;;;;;6.45;5.18;;;13.90;65.80;;;;;;4992328;28;20026;-48
2021/01/28 04:54:31;;;;;;;7.25;5.50;;;13.90;65.80;;;;;;4992499;28;20101;-49
2021/01/28 04:56:58;;;;;;;6.88;5.35;;;13.90;65.80;;;;;;4992507;28;20388;-47
2021/01/28 04:59:29;;;;;;;6.10;4.45;;;13.80;65.90;;;;;;4992419;28;20037;-47
2021/01/28 05:01:55;;;;;;;6.57;5.00;;;13.90;66.20;;;;;;4992254;28;20026;-48
2021/01/28 05:04:21;;;;;;;6.38;5.03;;;13.90;87.30;;;;;;4992100;28;20089;-50
2021/01/28 05:06:52;;;;;;;8.02;5.43;;;13.80;66.00;;;;;;4992325;28;20058;-47
2021/01/28 05:09:18;;;;;;;;;;;13.80;66.00;;;;;;4992463;28;20678;-49
2021/01/28 05:11:56;;;;;;;7.60;5.15;;;13.80;66.00;;;;;;4992299;28;19906;-48
2021/01/28 05:14:26;;;;;;;6.93;4.90;;;13.80;87.50;;;;;;4993338;28;20145;-47
2021/01/28 05:16:55;;;;;;;5.82;4.75;;;13.80;66.00;;;;;;4992312;28;20416;-48
2021/01/28 05:19:46;;;;;;;5.88;4.60;;;13.80;66.10;;;;;;4992274;28;20022;-47
2021/01/28 05:22:37;;;;;;;6.55;5.00;;;14.10;87.90;;;;;;4992040;28;20072;-49
2021/01/28 05:25:29;;;;;;;6.88;5.60;;;13.80;65.90;;;;;;4991988;28;20034;-47
2021/01/28 05:27:55;;;;;;;7.15;5.05;;;13.80;66.00;;;;;;4993856;28;20066;-48
2021/01/28 05:30:42;;;;;;;7.95;5.65;;;13.80;66.00;;;;;;4995335;28;20042;-47
2021/01/28 05:33:29;;;;;;;7.78;5.10;;;13.90;87.40;;;;;;4995314;28;20049;-49
2021/01/28 05:36:15;;;;;;;7.50;5.18;;;13.80;65.80;;;;;;4995719;28;20038;-50
2021/01/28 05:38:52;;;;;;;5.45;4.60;;;13.80;65.70;;;;;;4995631;28;20102;-48
2021/01/28 05:41:42;;;;;;;6.25;4.68;;;13.80;65.70;;;;;;4995372;28;20092;-49
2021/01/28 05:44:37;;;;;;;5.88;4.65;;;13.80;86.80;;;;;;4995299;28;20532;-49
2021/01/28 05:47:18;;;;;;;5.47;4.60;;;13.80;65.60;;;;;;4995133;28;20030;-49
2021/01/28 05:49:44;;;;;;;6.20;4.57;;;13.80;65.60;;;;;;4995066;28;20625;-48
2021/01/28 05:52:24;;;;;;;6.78;5.18;;;13.90;76.90;;;;;;4995266;28;20057;-48
2021/01/28 05:55:20;;;;;;;5.67;4.53;;;13.80;65.70;;;;;;4995028;28;20033;-48
2021/01/28 05:58:11;;;;;;;5.93;4.78;;;13.70;86.70;;;;;;4988302;28;20453;-48
2021/01/28 06:00:46;;;;;;;6.20;4.70;;;13.80;65.70;;;;;;4995018;28;20034;-47
2021/01/28 06:03:26;;;;;;;6.55;4.53;;;13.70;65.70;;;;;;4995283;28;20030;-48
2021/01/28 06:06:03;;;;;;;7.30;4.80;;;13.80;65.70;;;;;;4995200;28;20031;-50
2021/01/28 06:08:50;;;;;;;5.82;3.95;;;14.00;66.10;;;;;;4994846;28;20038;-48
2021/01/28 06:11:31;;;;;;;5.03;3.78;;;14.50;87.00;;;;;;4995080;28;20062;-48
2021/01/28 06:14:08;;;;;;;;;;;14.10;65.80;;;;;;4996381;28;20149;-48
2021/01/28 06:16:50;;;;;;;3.78;3.38;;;14.20;65.80;;;;;;4994908;28;19960;-48
2021/01/28 06:19:57;;;;;;;5.13;3.97;;;14.30;65.70;;;;;;4994772;28;20092;-48
2021/01/28 06:22:50;;;;;;;4.35;3.30;;;14.40;65.40;;;;;;4928662;28;20137;-48
2021/01/28 06:25:43;;;;;;;4.43;3.60;;;14.50;65.40;;;;;;4994788;28;20492;-47
2021/01/28 06:28:17;;;;;;;4.63;3.80;;;14.60;65.20;;;;;;4994756;28;20026;-50
2021/01/28 06:31:02;;;;;;;4.82;3.47;;;14.70;65.70;;;;;;4994650;28;20045;-49
2021/01/28 06:33:40;;;;;;;5.20;3.47;;;14.80;64.90;;;;;;4994660;28;20023;-50
2021/01/28 06:36:24;;;;;;;4.65;3.40;;;14.90;64.90;;;;;;4994574;28;20037;-48
2021/01/28 06:39:13;;;;;;;3.28;2.97;;;14.90;64.80;;;;;;4994119;28;20023;-49
2021/01/28 06:41:45;;;;;;;4.00;3.20;;;14.90;64.70;;;;;;4982037;28;20030;-51
2021/01/28 06:44:19;;;;;;;4.53;3.60;;;15.00;64.60;;;;;;4994156;28;20022;-50
2021/01/28 06:47:01;;;;;;;5.28;3.20;;;15.10;65.20;;;;;;4994157;28;20060;-49
2021/01/28 06:49:36;;;;;;;4.15;2.83;;;15.00;64.40;;;;;;4994064;28;20653;-47
2021/01/28 06:52:25;;;;;;;3.70;3.28;;;15.10;64.40;;;;;;4993990;28;20772;-50
2021/01/28 06:55:07;;;;;;;4.13;3.10;;;15.10;64.40;;;;;;4994245;28;20058;-49
2021/01/28 06:57:39;;;;;;;3.88;2.92;;;15.10;65.00;;;;;;4993885;28;20044;-49
2021/01/28 07:00:12;;;;;;;3.50;2.75;;;15.10;64.30;;;;;;4994120;28;20026;-48
2021/01/28 07:02:53;;;;;;;3.80;2.67;;;15.10;64.30;;;;;;4993807;28;20460;-48
2021/01/28 07:05:21;;;;;;;;;;;15.10;64.30;;;;;;4994158;28;20109;-49
2021/01/28 07:08:28;;;;;;;6.78;2.70;;;15.10;64.20;;;;;;4993981;28;19928;-51
2021/01/28 07:10:54;;;;;;;3.63;2.65;;;15.10;64.10;;;;;;4966993;28;20433;-49
2021/01/28 07:13:32;;;;;;;2.45;2.10;;;15.20;84.60;;;;;;4994838;28;20050;-46
2021/01/28 07:16:27;;;;;;;3.10;2.70;;;15.20;64.00;;;;;;4993876;28;20362;-47
2021/01/28 07:18:59;;;;;;;3.58;2.28;;;15.30;63.90;;;;;;4993111;28;20500;-47
2021/01/28 07:21:29;;;;;;;5.57;2.40;;;15.30;63.90;;;;;;4992270;28;20038;-48
2021/01/28 07:24:34;;;;;;;4.20;2.42;;;15.40;63.80;;;;;;4992288;28;20054;-48
2021/01/28 07:27:08;;;;;;;2.47;2.28;;;15.40;63.70;;;;;;4970149;28;20038;-49
2021/01/28 07:29:50;;;;;;;3.75;2.22;;;15.40;63.60;;;;;;4993638;28;20037;-47
2021/01/28 07:32:22;;;;;;;2.53;1.95;;;15.50;63.60;;;;;;4993725;28;20104;-46
2021/01/28 07:35:25;;;;;;;2.92;2.20;;;15.50;63.40;;;;;;4993394;28;20027;-48
2021/01/28 07:37:53;;;;;;;3.60;2.55;;;15.50;63.30;;;;;;4992551;28;20030;-46
2021/01/28 07:40:55;;;;;;;2.97;2.13;;;15.70;62.10;;;;;;4993384;28;20030;-49
2021/01/28 07:43:26;;;;;;;2.55;1.90;;;15.70;62.60;;;;;;4962398;28;20117;-49
2021/01/28 07:46:11;;;;;;;3.00;2.13;;;15.80;82.50;;;;;;4993161;28;20029;-50
2021/01/28 07:48:37;;;;;;;2.65;2.05;;;15.80;62.00;;;;;;4992640;28;20030;-49
2021/01/28 07:51:35;;;;;;;1.92;1.67;;;15.90;61.80;;;;;;4992305;28;20061;-48
2021/01/28 07:54:02;;;;;;;2.85;1.70;;;15.90;61.70;;;;;;4992878;28;20014;-50
2021/01/28 07:56:40;;;;;;;2.55;1.88;;;15.90;61.50;;;;;;4992957;28;20030;-49
2021/01/28 07:59:34;;;;;;;2.05;1.65;;;16.00;61.50;;;;;;4993122;28;20018;-49
2021/01/28 08:02:27;;;;;;;4.47;1.75;;;16.00;61.20;;;;;;4992162;28;20526;-48
2021/01/28 08:05:06;;;;;;;2.55;2.00;;;16.10;61.00;;;;;;4992860;28;20030;-48
2021/01/28 08:07:38;;;;;;;2.22;1.73;;;16.20;60.90;;;;;;4993209;28;20050;-49
2021/01/28 08:10:29;;;;;;;2.55;1.80;;;16.20;60.70;;;;;;4993077;28;20386;-50
2021/01/28 08:13:18;;;;;;;1.88;1.50;;;16.30;60.60;;;;;;4994237;28;20040;-50
2021/01/28 08:16:06;;;;;;;4.20;1.67;;;16.30;60.50;;;;;;4992718;28;20046;-50
2021/01/28 08:18:36;;;;;;;4.28;1.48;;;16.30;60.40;;;;;;4992842;28;20503;-50
2021/01/28 08:21:08;;;;;;;1.58;1.25;;;16.30;60.20;;;;;;4993073;28;20532;-49
2021/01/28 08:23:36;;;;;;;2.25;1.38;;;16.40;60.20;;;;;;4992767;28;20548;-50
2021/01/28 08:26:15;;;;;;;2.80;1.45;;;16.30;60.30;;;;;;4975575;28;20026;-49
2021/01/28 08:28:43;;;;;;;2.40;1.52;;;16.30;60.50;;;;;;4992628;28;20026;-51
2021/01/28 08:31:24;;;;;;;3.17;1.40;;;16.20;60.50;;;;;;4992666;28;20112;-49
2021/01/28 08:34:02;;;;;;;1.52;1.30;;;16.10;60.70;;;;;;4992243;28;20437;-49
2021/01/28 08:36:56;;;;;;;2.08;1.35;;;16.00;61.00;;;;;;4992727;28;20034;-48
2021/01/28 08:39:29;;;;;;;1.55;1.30;;;15.90;61.20;;;;;;4992770;28;20485;-49
2021/01/28 08:42:16;;;;;;;1.45;1.25;;;15.80;61.40;;;;;;4992440;28;20448;-49
2021/01/28 08:44:45;;;;;;;2.95;1.30;;;15.80;61.70;;;;;;4992311;28;20033;-48
2021/01/28 08:47:10;;;;;;;1.58;1.20;;;15.80;61.90;;;;;;4992594;28;20038;-49
2021/01/28 08:49:36;;;;;;;1.52;1.30;;;15.70;61.70;;;;;;4974810;28;20034;-49
2021/01/28 08:52:23;;;;;;;1.73;1.10;;;15.70;61.70;;;;;;4992317;28;20026;-49
2021/01/28 08:54:48;;;;;;;3.05;1.40;;;15.60;61.90;;;;;;4992183;28;20057;-48
2021/01/28 08:57:20;;;;;;;1.08;0.98;;;15.40;61.50;;;;;;4992644;28;20528;-48
2021/01/28 08:59:52;;;;;;;2.67;1.45;;;15.60;61.60;;;;;;4992403;28;20105;-49
2021/01/28 09:02:30;;;;;;;1.23;1.05;;;15.60;61.60;;;;;;4994952;28;20081;-49
2021/01/28 09:05:17;;;;;;;2.03;1.10;;;15.60;61.50;;;;;;4996334;28;20014;-50
2021/01/28 09:07:48;;;;;;;1.60;1.10;;;15.60;61.50;;;;;;4996250;28;20033;-48
2021/01/28 09:10:28;;;;;;;1.52;1.20;;;15.60;61.40;;;;;;4996285;28;20378;-50
2021/01/28 09:13:21;;;;;;;1.30;1.00;;;15.60;61.40;;;;;;4997018;28;20500;-48
2021/01/28 09:16:04;;;;;;;1.40;0.93;;;15.60;61.40;;;;;;4996207;28;20084;-49
2021/01/28 09:18:35;;;;;;;1.48;1.10;;;15.60;61.40;;;;;;4996099;28;20026;-50
2021/01/28 09:21:19;;;;;;;2.47;1.30;;;15.70;61.20;;;;;;4995964;28;20026;-49
2021/01/28 09:24:01;;;;;;;1.60;0.95;;;15.70;61.20;;;;;;4996057;28;20076;-48
2021/01/28 09:26:35;;;;;;;1.15;1.00;;;15.70;61.20;;;;;;4995650;28;20027;-48
2021/01/28 09:29:22;;;;;;;1.30;1.20;;;15.70;61.30;;;;;;4995891;28;20026;-50
2021/01/28 09:31:50;;;;;;;1.67;1.17;;;15.60;61.40;;;;;;4995476;28;20034;-48
2021/01/28 09:34:29;;;;;;;1.13;1.02;;;15.60;61.40;;;;;;4995586;28;20014;-46
2021/01/28 09:37:01;;;;;;;1.38;1.02;;;15.50;61.10;;;;;;4995492;28;20026;-50
2021/01/28 09:39:36;;;;;;;1.15;1.05;;;15.50;61.40;;;;;;4995411;28;20022;-48
2021/01/28 09:42:28;;;;;;;1.13;1.00;;;15.50;61.50;;;;;;4995416;28;20034;-49
2021/01/28 09:44:55;;;;;;;1.42;1.02;;;15.50;61.20;;;;;;4995476;28;20027;-50
2021/01/28 09:47:30;;;;;;;1.55;0.73;;;15.50;61.80;;;;;;4995209;28;20041;-49
2021/01/28 09:50:07;;;;;;;1.45;1.05;;;15.40;83.00;;;;;;4995352;28;20363;-50
2021/01/28 09:52:34;;;;;;;1.35;0.80;;;15.40;61.50;;;;;;4995041;28;20034;-52
2021/01/28 09:55:12;;;;;;;0.90;0.70;;;15.60;61.70;;;;;;4995105;28;20041;-49
2021/01/28 09:57:37;;;;;;;1.35;0.90;;;15.70;61.70;;;;;;4995492;28;20050;-50
2021/01/28 10:00:07;;;;;;;1.38;0.80;;;15.80;61.40;;;;;;4995371;28;20493;-51
2021/01/28 10:02:49;;;;;;;0.88;0.60;;;15.80;61.30;;;;;;4995708;28;20369;-50
2021/01/28 10:05:20;;;;;;;1.13;0.85;;;15.80;61.20;;;;;;4995434;28;20069;-52
2021/01/28 10:07:47;;;;;;;2.72;0.77;;;15.90;61.20;;;;;;4995508;28;20039;-48
2021/01/28 10:10:14;;;;;;;3.33;0.88;;;16.00;61.00;;;;;;4995285;28;20030;-52
2021/01/28 10:12:41;;;;;;;1.33;0.68;;;16.10;61.10;;;;;;4994179;28;20282;-49
2021/01/28 10:15:07;;;;;;;2.35;0.93;;;16.10;61.10;;;;;;4995821;28;20115;-50
2021/01/28 10:17:33;;;;;;;1.85;0.82;;;16.20;60.90;;;;;;4994617;28;20528;-51
2021/01/28 10:19:58;;;;;;;2.53;0.65;;;16.10;60.90;;;;;;4994750;28;20026;-49
2021/01/28 10:22:24;;;;;;;1.02;0.55;;;16.20;60.70;;;;;;4994569;28;20022;-49
2021/01/28 10:24:50;;;;;;;1.52;0.90;;;16.30;60.70;;;;;;4994800;28;20058;-50
2021/01/28 10:27:16;;;;;;;1.58;0.90;;;16.30;61.40;;;;;;4994837;28;20215;-52
2021/01/28 10:29:43;;;;;;;0.75;0.75;;;16.30;60.40;;;;;;4994347;28;20038;-52
2021/01/28 10:32:11;;;;;;;1.58;0.60;;;16.40;60.50;;;;;;4994404;28;20027;-50
2021/01/28 10:34:37;;;;;;;1.05;0.75;;;16.40;60.40;;;;;;4994590;28;20162;-52
2021/01/28 10:37:04;;;;;;;1.55;0.68;;;16.40;60.30;;;;;;4994896;28;20053;-51
2021/01/28 10:39:30;;;;;;;1.63;0.52;;;16.30;60.00;;;;;;4994637;28;20410;-51
2021/01/28 10:41:55;;;;;;;1.52;0.85;;;16.50;60.20;;;;;;4994537;28;20338;-49
2021/01/28 10:44:22;;;;;;;2.38;0.70;;;16.30;60.10;;;;;;4994443;28;20030;-50
2021/01/28 10:46:47;;;;;;;1.10;1.00;;;16.50;60.20;;;;;;4994451;28;20042;-53
2021/01/28 10:49:13;;;;;;;0.50;0.50;;;15.80;59.80;;;;;;4994037;28;20065;-50
2021/01/28 10:51:40;;;;;;;0.95;0.57;;;16.30;60.10;;;;;;4994529;28;20043;-50
2021/01/28 10:54:06;;;;;;;1.02;0.43;;;16.40;60.00;;;;;;4994273;28;20053;-51
2021/01/28 10:56:32;;;;;;;1.58;0.55;;;16.40;60.00;;;;;;4993871;28;20049;-52
2021/01/28 10:58:58;;;;;;;1.25;0.70;;;16.40;60.00;;;;;;4994273;28;20026;-52
2021/01/28 11:01:23;;;;;;;0.68;0.52;;;16.40;60.30;;;;;;4993910;28;20030;-52
2021/01/28 11:03:49;;;;;;;6.32;0.70;;;16.40;60.00;;;;;;4994076;28;20026;-49
2021/01/28 11:06:15;;;;;;;0.80;0.75;;;16.40;60.20;;;;;;4993996;28;20041;-48
2021/01/28 11:08:40;;;;;;;2.40;0.50;;;16.40;60.00;;;;;;4993720;28;20026;-48
2021/01/28 11:11:07;;;;;;;1.27;0.60;;;16.30;59.90;;;;;;4993885;28;20034;-49
2021/01/28 11:13:32;;;;;;;0.60;0.60;;;16.30;60.00;;;;;;4994586;28;20046;-50
2021/01/28 11:15:58;;;;;;;1.23;0.70;;;16.30;60.20;;;;;;4993609;28;20481;-49
2021/01/28 11:18:23;;;;;;;2.90;0.68;;;16.20;60.20;;;;;;4993877;28;20030;-48
2021/01/28 11:20:49;;;;;;;0.90;0.47;;;16.20;60.20;;;;;;4993796;28;20381;-48
2021/01/28 11:23:15;;;;;;;0.60;0.50;;;16.10;60.20;;;;;;4993513;28;20465;-50
2021/01/28 11:25:40;;;;;;;0.60;0.60;;;16.00;60.40;;;;;;4993725;28;20030;-51
2021/01/28 11:28:06;;;;;;;2.28;0.50;;;16.00;60.50;;;;;;4993779;28;20105;-49
2021/01/28 11:30:34;;;;;;;0.40;0.30;;;15.90;60.60;;;;;;4993626;28;20034;-48
2021/01/28 11:33:01;;;;;;;1.00;0.40;;;16.30;61.10;;;;;;4993422;28;20027;-50
2021/01/28 11:35:30;;;;;;;1.60;0.40;;;15.80;60.70;;;;;;4993375;28;20036;-48
2021/01/28 11:37:59;;;;;;;0.60;0.60;;;15.80;60.80;;;;;;4993283;28;20497;-48
2021/01/28 11:40:27;;;;;;;0.80;0.57;;;15.80;60.80;;;;;;4993814;28;20061;-48
2021/01/28 11:42:53;;;;;;;1.08;0.47;;;15.80;60.80;;;;;;4993281;28;20026;-50
2021/01/28 11:45:25;;;;;;;0.70;0.57;;;15.70;61.20;;;;;;4993523;28;20028;-52
2021/01/28 11:47:50;;;;;;;0.80;0.50;;;15.70;61.40;;;;;;4993465;28;20456;-54
2021/01/28 11:50:17;;;;;;;0.63;0.50;;;15.80;61.50;;;;;;4993556;28;20121;-54
2021/01/28 11:52:43;;;;;;;0.68;0.47;;;15.90;61.20;;;;;;4993535;28;20026;-53
2021/01/28 11:55:12;;;;;;;0.50;0.38;;;15.90;61.10;;;;;;4993451;28;20113;-49
2021/01/28 11:57:37;;;;;;;0.50;0.35;;;16.00;61.00;;;;;;4993262;28;20061;-51
2021/01/28 12:00:06;;;;;;;1.77;0.43;;;16.10;60.80;;;;;;4993456;28;20050;-48
2021/01/28 12:02:32;;;;;;;0.93;0.60;;;16.20;60.50;;;;;;4976074;28;20037;-49
2021/01/28 12:04:57;;;;;;;0.55;0.45;;;16.80;60.60;;;;;;4993369;28;20448;-52
2021/01/28 12:07:23;;;;;;;0.73;0.50;;;16.40;60.30;;;;;;4993211;28;20385;-53
2021/01/28 12:09:49;;;;;;;0.30;0.20;;;16.50;60.10;;;;;;4992762;28;20034;-52
2021/01/28 12:12:14;;;;;;;0.60;0.60;;;16.50;60.00;;;;;;4992752;28;20034;-53
2021/01/28 12:14:40;;;;;;;2.25;0.45;;;16.60;60.00;;;;;;4993842;28;20050;-50
2021/01/28 12:17:06;;;;;;;0.68;0.38;;;16.60;59.80;;;;;;4992992;28;20472;-49
2021/01/28 12:19:31;;;;;;;0.52;0.50;;;16.70;59.70;;;;;;4992993;28;20019;-49
2021/01/28 12:21:57;;;;;;;0.52;0.35;;;16.70;59.70;;;;;;4992936;28;20389;-51
2021/01/28 12:24:23;;;;;;;1.58;0.40;;;16.70;59.60;;;;;;4992804;28;20022;-50
2021/01/28 12:26:48;;;;;;;0.75;0.30;;;16.80;59.50;;;;;;4992810;28;20088;-53
2021/01/28 12:29:14;;;;;;;0.65;0.45;;;16.90;59.50;;;;;;4992859;28;20415;-48
2021/01/28 12:31:39;;;;;;;2.20;0.38;;;16.90;59.40;;;;;;4992615;28;20362;-50
2021/01/28 12:34:05;;;;;;;0.73;0.40;;;16.90;59.40;;;;;;4992658;28;20023;-53
2021/01/28 12:36:31;;;;;;;1.15;0.47;;;17.10;59.60;;;;;;4995863;28;20503;-53
2021/01/28 12:38:56;;;;;;;1.33;0.45;;;16.90;59.40;;;;;;4999212;28;20022;-51
2021/01/28 12:41:22;;;;;;;0.20;0.20;;;16.90;59.50;;;;;;4999202;28;20022;-48
2021/01/28 12:43:47;;;;;;;0.35;0.35;;;16.80;59.30;;;;;;4999157;28;20018;-53
2021/01/28 12:46:13;;;;;;;0.40;0.30;;;16.90;59.30;;;;;;4998920;28;20122;-51
2021/01/28 12:48:39;;;;;;;0.40;0.30;;;16.80;59.30;;;;;;4999162;28;20125;-51
2021/01/28 12:51:04;;;;;;;1.08;0.30;;;16.80;59.50;;;;;;4998694;28;20031;-50
2021/01/28 12:53:30;;;;;;;0.40;0.30;;;16.80;59.50;;;;;;4998818;28;20026;-51
2021/01/28 12:55:56;;;;;;;0.47;0.47;;;16.80;59.60;;;;;;4999150;28;20048;-50
2021/01/28 12:58:21;;;;;;;0.52;0.30;;;16.70;59.50;;;;;;4999036;28;20026;-51
2021/01/28 13:00:47;;;;;;;1.00;0.63;;;16.70;59.60;;;;;;4999014;28;20100;-49
2021/01/28 13:03:13;;;;;;;0.40;0.30;;;16.70;59.50;;;;;;4981268;28;20023;-50
2021/01/28 13:05:38;;;;;;;0.70;0.40;;;16.70;59.90;;;;;;4999031;28;20033;-50
2021/01/28 13:08:04;;;;;;;0.82;0.47;;;16.70;59.80;;;;;;4998913;28;20023;-50
2021/01/28 13:10:29;;;;;;;0.47;0.38;;;16.90;59.70;;;;;;4998836;28;20113;-49